createdAt,value
2023-03-14T00:01:11.755Z,8.20
2023-03-14T00:03:39.323Z,8.40
2023-03-14T00:06:08.424Z,8.85
2023-03-14T00:08:36.244Z,8.02
2023-03-14T00:11:08.209Z,7.70
2023-03-14T00:13:37.225Z,8.10
2023-03-14T00:16:06.399Z,8.00
2023-03-14T00:18:34.410Z,8.10
2023-03-14T00:21:02.612Z,8.52
2023-03-14T00:23:31.379Z,8.13
2023-03-14T00:26:00.831Z,8.40
2023-03-14T00:28:28.833Z,8.70
2023-03-14T00:30:58.174Z,8.75
2023-03-14T00:33:26.300Z,7.90
2023-03-14T00:35:55.654Z,8.38
2023-03-14T00:38:23.378Z,8.82
2023-03-14T00:40:51.017Z,8.05
2023-03-14T00:43:18.947Z,8.10
2023-03-14T00:45:46.557Z,8.80
2023-03-14T00:48:15.543Z,8.85
2023-03-14T00:50:43.212Z,8.30
2023-03-14T00:53:10.864Z,8.30
2023-03-14T00:55:39.184Z,8.65
2023-03-14T00:58:06.934Z,8.52
2023-03-14T01:00:34.753Z,8.27
2023-03-14T01:03:02.670Z,8.70
2023-03-14T01:05:32.036Z,8.73
2023-03-14T01:07:59.906Z,8.25
2023-03-14T01:10:27.529Z,7.82
2023-03-14T01:12:55.232Z,8.23
2023-03-14T01:15:24.068Z,8.55
2023-03-14T01:17:51.785Z,8.63
2023-03-14T01:20:20.920Z,8.23
2023-03-14T01:22:49.920Z,9.15
2023-03-14T01:25:18.736Z,9.07
2023-03-14T01:27:46.531Z,8.60
2023-03-14T01:30:14.936Z,8.80
2023-03-14T01:32:42.672Z,9.38
2023-03-14T01:35:10.555Z,8.20
2023-03-14T01:37:38.239Z,8.50
2023-03-14T01:40:08.115Z,8.18
2023-03-14T01:42:35.718Z,8.05
2023-03-14T01:45:03.923Z,8.52
2023-03-14T01:47:31.573Z,8.82
2023-03-14T01:50:01.878Z,9.15
2023-03-14T01:52:34.243Z,9.05
2023-03-14T01:55:04.494Z,8.05
2023-03-14T01:57:35.278Z,8.25
2023-03-14T02:00:09.828Z,8.30
2023-03-14T02:02:37.498Z,9.50
2023-03-14T02:05:06.432Z,8.52
2023-03-14T02:07:37.813Z,8.82
2023-03-14T02:10:06.223Z,10.02
2023-03-14T02:12:35.879Z,8.23
2023-03-14T02:15:03.476Z,8.32
2023-03-14T02:17:31.100Z,8.30
2023-03-14T02:20:25.211Z,8.52
2023-03-14T02:22:53.246Z,8.07
2023-03-14T02:25:27.148Z,8.23
2023-03-14T02:27:56.229Z,8.60
2023-03-14T02:30:26.269Z,7.97
2023-03-14T02:32:56.790Z,8.18
2023-03-14T02:35:26.407Z,8.30
2023-03-14T02:37:57.042Z,8.38
2023-03-14T02:40:24.826Z,7.85
2023-03-14T02:42:52.499Z,7.55
2023-03-14T02:45:44.919Z,8.25
2023-03-14T02:48:18.160Z,7.90
2023-03-14T02:50:47.866Z,7.93
2023-03-14T02:53:19.687Z,7.97
2023-03-14T02:55:48.598Z,7.90
2023-03-14T02:58:16.629Z,7.40
2023-03-14T03:00:45.681Z,7.90
2023-03-14T03:03:13.508Z,7.82
2023-03-14T03:05:41.272Z,7.72
2023-03-14T03:08:09.062Z,7.40
2023-03-14T03:10:36.799Z,7.72
2023-03-14T03:13:04.468Z,7.28
2023-03-14T03:15:32.362Z,7.03
2023-03-14T03:18:01.358Z,7.65
2023-03-14T03:20:29.061Z,7.55
2023-03-14T03:22:56.752Z,7.25
2023-03-14T03:25:24.382Z,7.55
2023-03-14T03:27:52.091Z,7.20
2023-03-14T03:30:20.374Z,7.50
2023-03-14T03:32:48.222Z,7.00
2023-03-14T03:35:17.379Z,7.18
2023-03-14T03:37:45.054Z,7.20
2023-03-14T03:40:13.233Z,6.85
2023-03-14T03:42:40.837Z,7.35
2023-03-14T03:45:09.652Z,7.28
2023-03-14T03:47:37.418Z,7.28
2023-03-14T03:50:05.765Z,7.20
2023-03-14T03:52:34.759Z,6.80
2023-03-14T03:55:02.405Z,7.43
2023-03-14T03:57:30.048Z,7.20
2023-03-14T03:59:57.703Z,7.00
2023-03-14T04:02:25.490Z,7.03
2023-03-14T04:04:53.476Z,7.20
2023-03-14T04:07:21.165Z,7.22
2023-03-14T04:09:50.190Z,7.75
2023-03-14T04:12:17.864Z,6.97
2023-03-14T04:14:45.488Z,7.38
2023-03-14T04:17:13.228Z,7.30
2023-03-14T04:19:40.888Z,6.68
2023-03-14T04:22:08.548Z,7.05
2023-03-14T04:24:36.199Z,7.10
2023-03-14T04:27:05.191Z,7.60
2023-03-14T04:29:32.858Z,9.77
2023-03-14T04:32:00.522Z,6.95
2023-03-14T04:34:28.189Z,7.18
2023-03-14T04:36:55.879Z,7.22
2023-03-14T04:39:23.546Z,6.85
2023-03-14T04:41:51.198Z,7.07
2023-03-14T04:44:20.470Z,7.82
2023-03-14T04:46:48.132Z,7.55
2023-03-14T04:49:15.773Z,7.22
2023-03-14T04:51:43.436Z,7.60
2023-03-14T04:54:11.332Z,7.05
2023-03-14T04:56:39.181Z,7.65
2023-03-14T04:59:07.099Z,7.35
2023-03-14T05:01:36.322Z,7.10
2023-03-14T05:04:04.097Z,7.75
2023-03-14T05:06:31.779Z,7.50
2023-03-14T05:08:59.442Z,7.38
2023-03-14T05:11:27.103Z,7.40
2023-03-14T05:13:54.803Z,7.20
2023-03-14T05:16:22.568Z,7.28
2023-03-14T05:18:52.500Z,6.93
2023-03-14T05:21:20.116Z,7.80
2023-03-14T05:23:47.781Z,6.95
2023-03-14T05:26:17.615Z,7.10
2023-03-14T05:28:45.281Z,7.50
2023-03-14T05:31:15.710Z,7.32
2023-03-14T05:33:43.376Z,7.13
2023-03-14T05:36:12.517Z,6.90
2023-03-14T05:38:40.153Z,6.68
2023-03-14T05:41:08.204Z,7.68
2023-03-14T05:43:35.843Z,7.57
2023-03-14T05:46:03.533Z,7.30
2023-03-14T05:48:31.169Z,7.13
2023-03-14T05:51:00.291Z,6.95
2023-03-14T05:53:30.032Z,6.82
2023-03-14T05:55:58.437Z,7.50
2023-03-14T05:58:26.099Z,7.57
2023-03-14T06:00:53.802Z,7.18
2023-03-14T06:03:21.528Z,7.47
2023-03-14T06:05:51.866Z,7.75
2023-03-14T06:08:19.536Z,7.15
2023-03-14T06:10:48.499Z,7.20
2023-03-14T06:13:16.566Z,7.03
2023-03-14T06:15:44.458Z,7.68
2023-03-14T06:18:13.236Z,7.00
2023-03-14T06:20:41.088Z,7.03
2023-03-14T06:23:09.266Z,6.63
2023-03-14T06:25:37.506Z,7.57
2023-03-14T06:28:06.515Z,7.30
2023-03-14T06:30:34.195Z,7.20
2023-03-14T06:33:01.923Z,8.57
2023-03-14T06:35:29.655Z,9.13
2023-03-14T06:37:57.390Z,9.15
2023-03-14T06:40:25.076Z,9.55
2023-03-14T06:42:52.911Z,8.45
2023-03-14T06:45:21.987Z,7.50
2023-03-14T06:47:49.669Z,7.40
2023-03-14T06:50:17.338Z,7.03
2023-03-14T06:52:48.737Z,7.30
2023-03-14T06:55:16.779Z,5.68
2023-03-14T06:57:45.036Z,7.95
2023-03-14T07:00:13.775Z,7.85
2023-03-14T07:02:43.609Z,7.72
2023-03-14T07:05:12.220Z,6.97
2023-03-14T07:07:39.965Z,7.32
2023-03-14T07:10:09.753Z,7.18
2023-03-14T07:12:37.724Z,8.07
2023-03-14T07:15:17.529Z,9.50
2023-03-14T07:17:48.984Z,8.90
2023-03-14T07:20:17.127Z,7.70
2023-03-14T07:22:44.842Z,7.57
2023-03-14T07:25:13.151Z,7.53
2023-03-14T07:27:40.832Z,7.30
2023-03-14T07:30:09.335Z,7.40
2023-03-14T07:32:36.965Z,7.50
2023-03-14T07:35:07.020Z,7.03
2023-03-14T07:37:34.607Z,7.30
2023-03-14T07:40:02.252Z,7.53
2023-03-14T07:42:30.234Z,7.80
2023-03-14T07:44:57.868Z,7.78
2023-03-14T07:47:25.582Z,8.18
2023-03-14T07:49:53.214Z,7.35
2023-03-14T07:52:22.170Z,7.53
2023-03-14T07:54:49.809Z,7.70
2023-03-14T07:57:17.644Z,8.48
2023-03-14T07:59:45.251Z,7.80
2023-03-14T08:02:14.055Z,8.15
2023-03-14T08:04:42.166Z,7.93
2023-03-14T08:07:09.972Z,8.63
2023-03-14T08:09:38.967Z,8.75
2023-03-14T08:12:07.144Z,7.15
2023-03-14T08:14:34.845Z,7.65
2023-03-14T08:17:02.495Z,7.63
2023-03-14T08:19:30.113Z,8.02
2023-03-14T08:21:57.727Z,8.07
2023-03-14T08:24:25.328Z,7.93
2023-03-14T08:26:54.372Z,8.02
2023-03-14T08:29:22.204Z,8.93
2023-03-14T08:31:50.022Z,8.20
2023-03-14T08:34:17.809Z,7.80
2023-03-14T08:36:45.507Z,8.35
2023-03-14T08:39:13.248Z,7.80
2023-03-14T08:41:43.764Z,8.07
2023-03-14T08:44:13.597Z,8.32
2023-03-14T08:46:41.336Z,9.75
2023-03-14T08:49:09.036Z,8.85
2023-03-14T08:51:36.672Z,10.93
2023-03-14T08:54:04.736Z,9.50
2023-03-14T08:56:32.431Z,8.85
2023-03-14T08:59:00.113Z,8.13
2023-03-14T09:01:29.305Z,8.18
2023-03-14T09:03:57.030Z,8.05
2023-03-14T09:06:24.928Z,8.77
2023-03-14T09:08:52.581Z,10.23
2023-03-14T09:11:20.565Z,9.30
2023-03-14T09:13:49.541Z,10.77
2023-03-14T09:16:17.501Z,8.73
2023-03-14T09:18:46.604Z,8.98
2023-03-14T09:21:14.328Z,9.15
2023-03-14T09:23:42.090Z,9.43
2023-03-14T09:26:09.936Z,8.75
2023-03-14T09:28:38.343Z,8.27
2023-03-14T09:31:09.919Z,8.20
2023-03-14T09:33:37.757Z,7.95
2023-03-14T09:36:08.215Z,8.05
2023-03-14T09:38:35.942Z,8.13
2023-03-14T09:41:05.440Z,8.43
2023-03-14T09:43:35.658Z,7.68
2023-03-14T09:46:03.991Z,8.90
2023-03-14T09:48:34.202Z,8.00
2023-03-14T09:51:04.612Z,11.20
2023-03-14T09:53:39.432Z,11.43
2023-03-14T09:56:12.649Z,11.73
2023-03-14T09:58:42.894Z,11.18
2023-03-14T10:01:13.556Z,9.15
2023-03-14T10:03:42.358Z,8.93
2023-03-14T10:06:14.690Z,8.60
2023-03-14T10:08:44.289Z,8.63
2023-03-14T10:11:17.237Z,9.45
2023-03-14T10:13:53.117Z,8.93
2023-03-14T10:16:30.703Z,8.85
2023-03-14T10:19:05.175Z,9.73
2023-03-14T10:21:38.004Z,8.90
2023-03-14T10:24:21.803Z,8.75
2023-03-14T10:26:54.920Z,9.55
2023-03-14T10:29:23.552Z,9.13
2023-03-14T10:31:55.054Z,9.77
2023-03-14T10:34:27.487Z,9.10
2023-03-14T10:39:32.283Z,9.55
2023-03-14T10:42:06.722Z,9.70
2023-03-14T10:44:34.646Z,9.80
2023-03-14T10:47:03.946Z,9.88
2023-03-14T10:49:33.137Z,8.88
2023-03-14T10:52:04.312Z,8.95
2023-03-14T10:54:33.367Z,8.65
2023-03-14T10:57:02.418Z,9.02
2023-03-14T10:59:31.820Z,9.57
2023-03-14T11:02:01.990Z,9.00
2023-03-14T11:04:47.221Z,8.93
2023-03-14T11:07:17.140Z,9.38
2023-03-14T11:09:50.331Z,9.57
2023-03-14T11:12:31.988Z,9.13
2023-03-14T11:15:04.586Z,9.40
2023-03-14T11:17:37.344Z,9.00
2023-03-14T11:20:19.802Z,9.75
2023-03-14T11:22:50.734Z,9.68
2023-03-14T11:25:25.984Z,9.55
2023-03-14T11:27:58.734Z,9.23
2023-03-14T11:30:31.789Z,9.45
2023-03-14T11:33:05.560Z,9.13
2023-03-14T11:35:37.718Z,8.93
2023-03-14T11:40:37.360Z,9.50
2023-03-14T11:43:08.973Z,9.55
2023-03-14T11:45:38.175Z,9.15
2023-03-14T11:48:24.549Z,9.27
2023-03-14T11:50:54.951Z,9.35
2023-03-14T11:53:25.909Z,9.27
2023-03-14T11:55:54.944Z,8.55
2023-03-14T11:58:25.848Z,8.55
2023-03-14T12:00:55.693Z,9.05
2023-03-14T12:03:29.173Z,8.82
2023-03-14T12:06:02.888Z,9.18
2023-03-14T12:08:41.892Z,9.18
2023-03-14T12:11:15.493Z,8.68
2023-03-14T12:13:43.653Z,9.50
2023-03-14T12:16:29.718Z,9.52
2023-03-14T12:18:57.404Z,9.13
2023-03-14T12:21:45.081Z,9.15
2023-03-14T12:24:20.312Z,8.88
2023-03-14T12:26:54.505Z,9.35
2023-03-14T12:29:22.193Z,9.35
2023-03-14T12:31:50.578Z,8.45
2023-03-14T12:34:31.797Z,9.07
2023-03-14T12:37:28.906Z,8.93
2023-03-14T12:40:12.618Z,8.80
2023-03-14T12:42:47.212Z,8.52
2023-03-14T12:45:33.036Z,9.23
2023-03-14T12:48:19.511Z,8.52
2023-03-14T12:50:48.628Z,8.60
2023-03-14T12:53:45.668Z,8.95
2023-03-14T12:56:23.700Z,9.07
2023-03-14T12:59:02.347Z,8.88
2023-03-14T13:01:30.303Z,8.90
2023-03-14T13:03:59.584Z,9.20
2023-03-14T13:06:52.064Z,8.95
2023-03-14T13:10:01.092Z,8.80
2023-03-14T13:12:39.591Z,8.68
2023-03-14T13:15:20.362Z,8.40
2023-03-14T13:17:49.280Z,8.63
2023-03-14T13:20:19.756Z,8.30
2023-03-14T13:22:51.609Z,8.75
2023-03-14T13:25:21.985Z,8.18
2023-03-14T13:27:49.660Z,8.10
2023-03-14T13:30:22.745Z,8.55
2023-03-14T13:32:52.047Z,7.90
2023-03-14T13:35:23.035Z,8.18
2023-03-14T13:38:04.161Z,8.75
2023-03-14T13:40:37.906Z,8.05
2023-03-14T13:43:12.276Z,8.27
2023-03-14T13:45:50.932Z,8.10
2023-03-14T13:48:19.343Z,8.40
2023-03-14T13:50:48.838Z,8.10
2023-03-14T13:53:16.526Z,8.70
2023-03-14T13:55:44.126Z,8.32
2023-03-14T13:58:21.251Z,7.78
2023-03-14T14:01:01.350Z,7.85
2023-03-14T14:03:29.548Z,7.72
2023-03-14T14:05:59.581Z,7.53
2023-03-14T14:08:27.909Z,7.45
2023-03-14T14:10:59.436Z,7.25
2023-03-14T14:13:28.413Z,7.47
2023-03-14T14:15:57.859Z,7.63
2023-03-14T14:18:27.830Z,7.20
2023-03-14T14:20:56.149Z,7.03
2023-03-14T14:23:26.914Z,7.43
2023-03-14T14:25:55.054Z,7.25
2023-03-14T14:28:28.739Z,7.20
2023-03-14T14:31:20.851Z,7.72
2023-03-14T14:33:55.926Z,7.65
2023-03-14T14:36:25.824Z,7.10
2023-03-14T14:38:55.189Z,7.82
2023-03-14T14:41:23.046Z,7.85
2023-03-14T14:43:50.855Z,7.28
2023-03-14T14:46:21.539Z,7.35
2023-03-14T14:48:52.395Z,7.55
2023-03-14T14:51:28.947Z,7.40
2023-03-14T14:54:15.560Z,7.43
2023-03-14T14:56:48.500Z,7.45
2023-03-14T14:59:28.557Z,7.45
2023-03-14T15:02:01.807Z,6.63
2023-03-14T15:04:32.585Z,7.30
2023-03-14T15:07:00.244Z,7.30
2023-03-14T15:09:27.982Z,6.60
2023-03-14T15:11:55.613Z,7.38
2023-03-14T15:14:23.222Z,6.97
2023-03-14T15:16:50.918Z,6.82
2023-03-14T15:19:25.247Z,6.70
2023-03-14T15:21:53.633Z,7.32
2023-03-14T15:24:21.290Z,7.00
2023-03-14T15:26:48.971Z,6.88
2023-03-14T15:29:16.653Z,7.43
2023-03-14T15:31:45.022Z,7.13
2023-03-14T15:34:12.878Z,7.53
2023-03-14T15:36:41.964Z,7.75
2023-03-14T15:39:12.043Z,6.85
2023-03-14T15:41:39.690Z,7.55
2023-03-14T15:44:07.429Z,7.22
2023-03-14T15:46:35.108Z,7.50
2023-03-14T15:49:02.774Z,6.90
2023-03-14T15:51:30.443Z,7.05
2023-03-14T15:53:59.470Z,7.03
2023-03-14T15:56:28.937Z,7.35
2023-03-14T15:58:56.873Z,7.50
2023-03-14T16:01:24.574Z,7.43
2023-03-14T16:03:53.708Z,7.78
2023-03-14T16:06:21.814Z,7.30
2023-03-14T16:08:49.456Z,7.20
2023-03-14T16:11:21.568Z,7.70
2023-03-14T16:13:49.969Z,9.05
2023-03-14T16:16:17.862Z,7.00
2023-03-14T16:18:45.548Z,7.20
2023-03-14T16:21:14.760Z,7.45
2023-03-14T16:23:42.434Z,8.07
2023-03-14T16:26:12.268Z,8.07
2023-03-14T16:28:41.270Z,7.88
2023-03-14T16:31:10.581Z,7.15
2023-03-14T16:33:39.666Z,7.57
2023-03-14T16:36:09.586Z,7.82
2023-03-14T16:38:37.882Z,7.97
2023-03-14T16:41:07.601Z,7.72
2023-03-14T16:43:37.165Z,7.22
2023-03-14T16:46:07.709Z,7.15
2023-03-14T16:48:35.815Z,7.32
2023-03-14T16:51:03.412Z,7.40
2023-03-14T16:53:31.235Z,7.47
2023-03-14T16:55:59.861Z,7.90
2023-03-14T16:58:27.604Z,7.60
2023-03-14T17:00:57.755Z,7.60
2023-03-14T17:03:27.798Z,7.22
2023-03-14T17:05:55.781Z,7.22
2023-03-14T17:08:23.406Z,6.63
2023-03-14T17:10:51.098Z,8.13
2023-03-14T17:13:25.424Z,7.78
2023-03-14T17:15:54.993Z,7.50
2023-03-14T17:18:22.960Z,8.05
2023-03-14T17:20:52.206Z,7.97
2023-03-14T17:23:19.841Z,7.45
2023-03-14T17:25:48.169Z,7.80
2023-03-14T17:28:15.767Z,7.15
2023-03-14T17:30:43.469Z,8.15
2023-03-14T17:33:11.193Z,6.97
2023-03-14T17:35:38.861Z,8.48
2023-03-14T17:38:07.860Z,7.03
2023-03-14T17:40:35.507Z,7.00
2023-03-14T17:43:03.132Z,8.15
2023-03-14T17:45:32.044Z,7.88
2023-03-14T17:47:59.681Z,6.60
2023-03-14T17:50:27.351Z,7.82
2023-03-14T17:52:54.996Z,8.38
2023-03-14T17:55:24.007Z,8.90
2023-03-14T17:57:51.635Z,8.23
2023-03-14T18:00:23.126Z,8.52
2023-03-14T18:02:50.975Z,8.82
2023-03-14T18:05:18.956Z,8.82
2023-03-14T18:07:46.803Z,8.15
2023-03-14T18:10:14.539Z,8.85
2023-03-14T18:12:43.879Z,7.75
2023-03-14T18:15:15.265Z,6.97
2023-03-14T18:17:43.118Z,7.97
2023-03-14T18:20:12.714Z,8.07
2023-03-14T18:22:40.760Z,7.10
2023-03-14T18:25:09.739Z,6.88
2023-03-14T18:27:37.411Z,7.65
2023-03-14T18:30:07.567Z,7.70
2023-03-14T18:32:35.240Z,7.10
2023-03-14T18:35:02.888Z,7.18
2023-03-14T18:37:30.515Z,8.15
2023-03-14T18:39:58.109Z,8.23
2023-03-14T18:42:25.728Z,8.25
2023-03-14T18:44:53.311Z,12.43
2023-03-14T18:47:25.716Z,9.77
2023-03-14T18:49:53.367Z,8.43
2023-03-14T18:52:20.988Z,7.93
2023-03-14T18:54:48.585Z,9.35
2023-03-14T18:57:16.208Z,10.30
2023-03-14T18:59:43.867Z,10.60
2023-03-14T19:02:11.571Z,11.63
2023-03-14T19:04:40.496Z,12.20
2023-03-14T19:07:08.121Z,7.80
2023-03-14T19:09:36.026Z,7.90
2023-03-14T19:12:03.660Z,10.13
2023-03-14T19:14:31.232Z,8.43
2023-03-14T19:16:58.896Z,8.43
2023-03-14T19:19:26.530Z,8.43
2023-03-14T19:21:55.533Z,8.20
2023-03-14T19:24:23.754Z,10.48
2023-03-14T19:26:51.502Z,19.80
2023-03-14T19:29:19.704Z,15.50
2023-03-14T19:31:47.382Z,10.27
2023-03-14T19:34:15.031Z,10.02
2023-03-14T19:36:42.725Z,9.07
2023-03-14T19:39:11.722Z,9.13
2023-03-14T19:41:39.481Z,9.95
2023-03-14T19:44:07.171Z,9.95
2023-03-14T19:46:36.035Z,9.57
2023-03-14T19:49:05.655Z,16.60
2023-03-14T19:51:35.189Z,18.40
2023-03-14T19:54:04.978Z,11.07
2023-03-14T19:56:34.438Z,9.75
2023-03-14T19:59:03.492Z,9.27
2023-03-14T20:01:31.583Z,9.35
2023-03-14T20:03:59.536Z,11.30
2023-03-14T20:06:27.228Z,9.90
2023-03-14T20:08:54.863Z,12.13
2023-03-14T20:11:22.763Z,11.07
2023-03-14T20:13:51.944Z,8.85
2023-03-14T20:16:19.688Z,8.93
2023-03-14T20:18:47.331Z,12.07
2023-03-14T20:21:15.449Z,10.20
2023-03-14T20:23:44.075Z,8.85
2023-03-14T20:26:11.791Z,7.28
2023-03-14T20:28:39.419Z,7.10
2023-03-14T20:31:09.181Z,7.47
2023-03-14T20:33:36.890Z,7.15
2023-03-14T20:36:05.103Z,7.05
2023-03-14T20:38:34.618Z,8.00
2023-03-14T20:41:02.326Z,7.13
2023-03-14T20:43:31.555Z,7.45
2023-03-14T20:46:00.905Z,7.72
2023-03-14T20:48:31.258Z,6.75
2023-03-14T20:50:59.312Z,7.25
2023-03-14T20:53:27.004Z,6.65
2023-03-14T20:55:56.573Z,7.75
2023-03-14T20:58:24.619Z,6.78
2023-03-14T21:00:53.937Z,6.93
2023-03-14T21:03:23.078Z,6.43
2023-03-14T21:05:52.605Z,7.13
2023-03-14T21:08:21.688Z,6.95
2023-03-14T21:10:49.600Z,7.32
2023-03-14T21:13:17.562Z,6.70
2023-03-14T21:15:45.375Z,7.47
2023-03-14T21:18:13.141Z,7.25
2023-03-14T21:20:42.221Z,7.00
2023-03-14T21:23:12.085Z,6.90
2023-03-14T21:25:43.125Z,7.07
2023-03-14T21:28:18.625Z,6.82
2023-03-14T21:30:46.532Z,6.43
2023-03-14T21:33:15.288Z,7.32
2023-03-14T21:35:43.228Z,6.80
2023-03-14T21:38:12.236Z,7.38
2023-03-14T21:40:39.961Z,7.47
2023-03-14T21:43:07.608Z,6.60
2023-03-14T21:45:35.785Z,7.53
2023-03-14T21:48:03.446Z,8.13
2023-03-14T21:50:31.058Z,7.25
2023-03-14T21:52:59.690Z,6.05
2023-03-14T21:55:28.677Z,6.57
2023-03-14T21:57:56.556Z,6.90
2023-03-14T22:00:25.963Z,6.63
2023-03-14T22:03:11.725Z,8.85
2023-03-14T22:05:42.986Z,6.95
2023-03-14T22:08:11.055Z,6.35
2023-03-14T22:10:45.375Z,6.38
2023-03-14T22:13:13.070Z,6.53
2023-03-14T22:15:40.770Z,6.57
2023-03-14T22:18:08.385Z,8.18
2023-03-14T22:20:36.622Z,6.70
2023-03-14T22:23:04.433Z,6.10
2023-03-14T22:25:32.015Z,6.57
2023-03-14T22:28:01.090Z,6.40
2023-03-14T22:30:28.754Z,6.80
2023-03-14T22:32:56.863Z,6.63
2023-03-14T22:35:24.633Z,6.72
2023-03-14T22:37:52.220Z,6.00
2023-03-14T22:40:20.135Z,6.80
2023-03-14T22:42:48.335Z,6.07
2023-03-14T22:45:17.657Z,6.43
2023-03-14T22:47:45.288Z,6.40
2023-03-14T22:50:13.043Z,6.78
2023-03-14T22:52:40.854Z,6.43
2023-03-14T22:55:09.167Z,6.88
2023-03-14T22:57:37.437Z,6.60
2023-03-14T23:00:12.083Z,7.90
2023-03-14T23:02:41.721Z,6.53
2023-03-14T23:05:10.314Z,7.03
2023-03-14T23:07:37.946Z,6.90
2023-03-14T23:10:06.585Z,6.47
2023-03-14T23:12:35.483Z,6.60
2023-03-14T23:15:06.076Z,6.63
2023-03-14T23:17:34.720Z,11.13
2023-03-14T23:20:06.463Z,6.53
2023-03-14T23:22:34.165Z,6.43
2023-03-14T23:25:02.433Z,6.80
2023-03-14T23:27:30.190Z,6.88
2023-03-14T23:29:58.222Z,6.68
2023-03-14T23:32:25.997Z,6.15
2023-03-14T23:34:53.775Z,6.85
2023-03-14T23:37:23.384Z,7.22
2023-03-14T23:39:51.569Z,7.20
2023-03-14T23:42:19.197Z,6.20
2023-03-14T23:44:46.849Z,6.60
2023-03-14T23:47:14.548Z,7.22
2023-03-14T23:49:42.696Z,6.53
2023-03-14T23:52:10.619Z,6.10
2023-03-14T23:54:39.625Z,7.00
2023-03-14T23:57:07.347Z,7.07
2023-03-14T23:59:35.331Z,6.35
